Time;durP1;ratioP1;P1;durP2;ratioP2;P2;SDS_P1;SDS_P2;PMS_P1;PMS_P2;Temp;Humidity;BMP_temperature;BMP_pressure;BME280_temperature;BME280_humidity;BME280_pressure;Samples;Min_cycle;Max_cycle;Signal;HPM_P1;HPM_P2
2024/04/12 00:01:37;;;;;;;3.80;1.77;;;7.30;99.90;;;;;;5439106;26;20268;-77
2024/04/12 00:04:08;;;;;;;2.70;1.55;;;7.30;99.90;;;;;;5438120;26;20230;-76
2024/04/12 00:06:34;;;;;;;1.80;1.70;;;7.30;99.90;;;;;;5438200;26;20242;-76
2024/04/12 00:09:09;;;;;;;3.40;2.23;;;7.20;99.90;;;;;;5436985;26;20238;-77
2024/04/12 00:11:38;;;;;;;6.30;2.60;;;7.20;99.90;;;;;;5442570;26;20738;-76
2024/04/12 00:14:08;;;;;;;2.50;1.80;;;7.10;99.90;;;;;;5441303;26;20238;-76
2024/04/12 00:16:38;;;;;;;2.25;1.83;;;7.10;99.90;;;;;;5442334;26;20265;-76
2024/04/12 00:19:12;;;;;;;2.50;2.22;;;7.10;99.90;;;;;;5440382;26;20249;-78
2024/04/12 00:21:41;;;;;;;4.32;1.88;;;7.10;99.90;;;;;;5441607;26;20353;-77
2024/04/12 00:24:11;;;;;;;3.30;1.83;;;7.10;99.90;;;;;;5441307;26;20246;-78
2024/04/12 00:26:43;;;;;;;3.38;2.28;;;7.00;99.90;;;;;;5442314;26;20334;-78
2024/04/12 00:29:25;;;;;;;3.72;2.13;;;7.00;99.90;;;;;;5440407;26;20277;-77
2024/04/12 00:31:52;;;;;;;3.00;2.05;;;7.00;99.90;;;;;;5442428;26;20246;-78
2024/04/12 00:34:26;;;;;;;2.33;2.13;;;7.00;99.90;;;;;;5440506;26;20319;-77
2024/04/12 00:36:53;;;;;;;2.08;1.80;;;6.90;99.90;;;;;;5441550;26;20230;-79
2024/04/12 00:39:35;;;;;;;4.25;2.00;;;6.90;99.90;;;;;;5446677;26;20817;-78
2024/04/12 00:42:07;;;;;;;6.63;2.35;;;6.90;99.90;;;;;;5461525;26;20230;-78
2024/04/12 00:44:36;;;;;;;3.50;1.80;;;6.90;99.90;;;;;;5463428;26;20233;-78
2024/04/12 00:47:07;;;;;;;5.63;2.47;;;6.80;99.90;;;;;;5477343;26;20286;-78
2024/04/12 00:49:36;;;;;;;2.95;2.20;;;6.80;99.90;;;;;;5440696;26;20293;-78
2024/04/12 00:52:04;;;;;;;1.95;1.77;;;6.80;99.90;;;;;;5472632;26;20237;-78
2024/04/12 00:54:32;;;;;;;2.70;2.08;;;6.80;99.90;;;;;;5441198;26;20280;-77
2024/04/12 00:56:59;;;;;;;2.33;1.83;;;6.70;99.90;;;;;;5441084;26;20260;-76
2024/04/12 00:59:31;;;;;;;3.53;2.50;;;6.70;99.90;;;;;;5439828;26;20265;-77
2024/04/12 01:01:59;;;;;;;4.57;2.28;;;6.70;99.90;;;;;;5441731;26;20335;-76
2024/04/12 01:04:27;;;;;;;2.70;1.92;;;6.60;99.90;;;;;;5440808;26;20586;-77
2024/04/12 01:06:53;;;;;;;3.08;2.10;;;6.60;99.90;;;;;;5441280;26;20691;-77
2024/04/12 01:09:21;;;;;;;2.10;1.90;;;6.60;99.90;;;;;;5440203;26;20273;-76
2024/04/12 01:11:47;;;;;;;2.72;2.25;;;6.50;99.90;;;;;;5452905;26;20268;-78
2024/04/12 01:14:16;;;;;;;2.57;2.07;;;6.50;99.90;;;;;;5451776;26;20237;-77
2024/04/12 01:16:45;;;;;;;2.08;1.80;;;6.40;99.90;;;;;;5440046;26;20234;-76
2024/04/12 01:19:14;;;;;;;3.13;1.77;;;6.40;99.90;;;;;;5439651;26;20295;-77
2024/04/12 01:21:44;;;;;;;2.03;1.80;;;6.40;99.90;;;;;;5440754;26;20409;-76
2024/04/12 01:24:12;;;;;;;3.03;2.13;;;6.40;99.90;;;;;;5475150;26;20726;-77
2024/04/12 01:26:41;;;;;;;2.50;2.10;;;6.40;99.90;;;;;;5452242;26;20234;-77
2024/04/12 01:29:10;;;;;;;2.95;1.90;;;6.30;99.90;;;;;;5440076;26;20743;-77
2024/04/12 01:31:38;;;;;;;2.80;1.90;;;6.30;99.90;;;;;;5441163;26;20230;-77
2024/04/12 01:34:13;;;;;;;2.45;2.00;;;6.20;99.90;;;;;;5441090;26;20238;-77
2024/04/12 01:36:43;;;;;;;2.58;1.20;;;6.20;99.90;;;;;;5441354;26;20246;-77
2024/04/12 01:39:11;;;;;;;1.90;1.35;;;6.20;99.90;;;;;;5440111;26;20261;-77
2024/04/12 01:41:44;;;;;;;3.90;2.00;;;6.20;99.90;;;;;;5441406;26;20234;-78
2024/04/12 01:44:12;;;;;;;1.75;1.65;;;6.20;99.90;;;;;;5441026;26;20230;-77
2024/04/12 01:46:41;;;;;;;1.60;1.50;;;6.20;99.90;;;;;;5441327;26;20238;-77
2024/04/12 01:49:10;;;;;;;2.35;2.15;;;6.10;99.90;;;;;;5439757;26;20634;-78
2024/04/12 01:51:41;;;;;;;3.10;2.20;;;6.10;99.90;;;;;;5441269;26;20230;-77
2024/04/12 01:54:13;;;;;;;5.78;2.30;;;6.10;99.90;;;;;;5441157;26;20634;-78
2024/04/12 01:56:47;;;;;;;1.98;1.80;;;6.10;99.90;;;;;;5441047;26;20801;-77
2024/04/12 01:59:15;;;;;;;5.00;2.33;;;6.00;99.90;;;;;;5439772;26;20273;-77
2024/04/12 02:01:45;;;;;;;2.20;2.00;;;6.00;99.90;;;;;;5441260;26;20283;-78
2024/04/12 02:04:15;;;;;;;4.70;2.50;;;6.00;99.90;;;;;;5440488;26;20769;-78
2024/04/12 02:06:44;;;;;;;3.42;2.08;;;6.00;99.90;;;;;;5440717;26;20742;-78
2024/04/12 02:09:14;;;;;;;4.30;1.83;;;6.00;99.90;;;;;;5439642;26;20338;-77
2024/04/12 02:11:45;;;;;;;1.73;1.52;;;5.90;99.90;;;;;;5441311;26;20749;-78
2024/04/12 02:14:12;;;;;;;1.65;1.55;;;5.90;99.90;;;;;;5440607;26;20286;-78
2024/04/12 02:16:41;;;;;;;2.22;1.98;;;6.00;99.90;;;;;;5440923;26;20280;-77
2024/04/12 02:19:10;;;;;;;1.58;1.40;;;6.00;99.90;;;;;;5445378;26;20781;-77
2024/04/12 02:21:38;;;;;;;2.83;1.90;;;6.00;99.90;;;;;;5441047;26;20733;-77
2024/04/12 02:24:05;;;;;;;3.80;1.92;;;5.90;99.90;;;;;;5441170;26;20298;-76
2024/04/12 02:26:35;;;;;;;2.33;1.83;;;5.80;99.90;;;;;;5440534;26;20794;-76
2024/04/12 02:29:04;;;;;;;1.92;1.50;;;5.80;99.90;;;;;;5440153;26;20337;-77
2024/04/12 02:31:34;;;;;;;2.15;1.48;;;5.80;99.90;;;;;;5440429;26;20238;-77
2024/04/12 02:34:01;;;;;;;1.60;1.50;;;5.80;99.90;;;;;;5439123;26;20234;-77
2024/04/12 02:36:31;;;;;;;3.50;2.30;;;5.70;99.90;;;;;;5440211;26;20295;-77
2024/04/12 02:38:57;;;;;;;2.38;1.60;;;5.70;99.90;;;;;;5439533;26;20714;-77
2024/04/12 02:41:30;;;;;;;6.32;1.85;;;5.70;99.90;;;;;;5440018;26;20254;-77
2024/04/12 02:44:01;;;;;;;2.30;2.03;;;5.70;99.90;;;;;;5440558;26;20285;-77
2024/04/12 02:46:32;;;;;;;2.33;1.70;;;5.70;99.90;;;;;;5439885;26;20306;-77
2024/04/12 02:49:04;;;;;;;2.05;1.50;;;5.70;99.90;;;;;;5439276;26;20238;-77
2024/04/12 02:51:32;;;;;;;1.33;1.23;;;5.60;99.90;;;;;;5446954;26;20325;-77
2024/04/12 02:53:58;;;;;;;2.45;1.95;;;5.60;99.90;;;;;;5464278;26;20725;-77
2024/04/12 02:56:27;;;;;;;3.77;2.27;;;5.60;99.90;;;;;;5439728;26;20307;-77
2024/04/12 02:58:53;;;;;;;2.80;1.55;;;5.70;99.90;;;;;;5439312;26;20637;-77
2024/04/12 03:01:23;;;;;;;2.00;1.80;;;5.60;99.90;;;;;;5438681;26;20452;-77
2024/04/12 03:03:55;;;;;;;2.53;2.22;;;5.60;99.90;;;;;;5440022;26;20647;-77
2024/04/12 03:06:25;;;;;;;1.90;1.70;;;5.50;99.90;;;;;;5449092;26;20730;-77
2024/04/12 03:08:52;;;;;;;2.42;1.73;;;5.50;99.90;;;;;;5453766;26;20300;-77
2024/04/12 03:11:25;;;;;;;2.60;1.60;;;5.50;99.90;;;;;;5455327;26;20240;-78
2024/04/12 03:13:52;;;;;;;3.72;1.80;;;5.60;99.90;;;;;;5456003;26;20237;-78
2024/04/12 03:16:22;;;;;;;1.83;1.65;;;5.50;99.90;;;;;;5451684;26;20234;-79
2024/04/12 03:18:52;;;;;;;2.78;2.10;;;5.50;99.90;;;;;;5449939;26;20337;-79
2024/04/12 03:21:24;;;;;;;2.08;1.85;;;5.50;99.90;;;;;;5453977;26;20710;-79
2024/04/12 03:23:50;;;;;;;5.43;2.20;;;5.40;99.90;;;;;;5449040;26;20233;-79
2024/04/12 03:26:21;;;;;;;2.17;1.98;;;5.40;99.90;;;;;;5443720;26;20309;-79
2024/04/12 03:28:49;;;;;;;2.67;2.47;;;5.40;99.90;;;;;;5448600;26;20336;-78
2024/04/12 03:31:18;;;;;;;2.90;1.98;;;5.30;99.90;;;;;;5445115;26;20241;-79
2024/04/12 03:33:44;;;;;;;3.95;2.10;;;5.20;99.90;;;;;;5440223;26;20236;-79
2024/04/12 03:36:40;;;;;;;4.60;1.63;;;5.10;99.90;;;;;;5444678;26;20237;-78
2024/04/12 03:39:28;;;;;;;3.08;1.95;;;5.10;99.90;;;;;;5455610;26;20233;-78
2024/04/12 03:41:58;;;;;;;1.92;1.73;;;5.00;99.90;;;;;;5455754;26;20283;-78
2024/04/12 03:44:25;;;;;;;3.83;2.20;;;5.00;99.90;;;;;;5459161;26;20236;-79
2024/04/12 03:46:57;;;;;;;1.95;1.70;;;5.00;99.90;;;;;;5461317;26;20301;-78
2024/04/12 03:49:28;;;;;;;2.20;1.70;;;5.00;99.90;;;;;;5459701;26;20594;-79
2024/04/12 03:51:59;;;;;;;3.13;2.28;;;5.00;99.90;;;;;;5458502;26;20287;-77
2024/04/12 03:54:26;;;;;;;4.38;2.28;;;5.10;99.90;;;;;;5454946;26;20294;-75
2024/04/12 03:56:56;;;;;;;3.00;1.90;;;5.10;99.90;;;;;;5452181;26;20236;-75
2024/04/12 03:59:24;;;;;;;1.92;1.80;;;5.10;99.90;;;;;;5460829;26;20236;-76
2024/04/12 04:01:54;;;;;;;4.15;2.17;;;5.10;99.90;;;;;;5442631;26;20282;-76
2024/04/12 04:04:25;;;;;;;2.20;2.00;;;5.00;99.90;;;;;;5457337;26;20269;-75
2024/04/12 04:06:55;;;;;;;3.10;1.92;;;4.90;99.90;;;;;;5442700;26;20428;-76
2024/04/12 04:09:25;;;;;;;1.80;1.70;;;4.90;99.90;;;;;;5456670;26;20236;-76
2024/04/12 04:11:55;;;;;;;2.28;1.73;;;4.90;99.90;;;;;;5458059;26;20280;-76
2024/04/12 04:14:25;;;;;;;3.90;2.15;;;5.00;99.90;;;;;;5443609;26;20613;-76
2024/04/12 04:16:55;;;;;;;1.75;1.65;;;5.00;99.90;;;;;;5470638;26;20785;-76
2024/04/12 04:19:30;;;;;;;2.65;2.35;;;5.00;99.90;;;;;;5446505;26;20354;-76
2024/04/12 04:22:01;;;;;;;2.53;2.05;;;5.00;99.90;;;;;;5442610;26;20333;-76
2024/04/12 04:24:32;;;;;;;3.85;2.10;;;5.00;99.90;;;;;;5442332;26;20247;-76
2024/04/12 04:27:00;;;;;;;2.38;2.17;;;5.00;99.90;;;;;;5441897;26;20268;-76
2024/04/12 04:29:26;;;;;;;2.10;1.90;;;4.90;99.90;;;;;;5442596;26;20237;-75
2024/04/12 04:31:56;;;;;;;2.23;2.00;;;4.90;99.90;;;;;;5441868;26;20600;-75
2024/04/12 04:34:25;;;;;;;2.33;2.13;;;4.90;99.90;;;;;;5441803;26;20478;-75
2024/04/12 04:36:56;;;;;;;1.77;1.67;;;4.90;99.90;;;;;;5442092;26;20313;-75
2024/04/12 04:39:23;;;;;;;2.88;2.20;;;4.90;99.90;;;;;;5441014;26;20341;-75
2024/04/12 04:41:55;;;;;;;3.42;2.50;;;4.90;99.90;;;;;;5442509;26;20246;-75
2024/04/12 04:44:22;;;;;;;4.85;1.90;;;4.90;99.90;;;;;;5441831;26;20347;-75
2024/04/12 04:46:53;;;;;;;3.63;2.25;;;4.90;99.90;;;;;;5441779;26;20621;-75
2024/04/12 04:49:23;;;;;;;3.85;2.42;;;4.90;99.90;;;;;;5440973;26;20238;-75
2024/04/12 04:51:51;;;;;;;1.90;1.70;;;4.90;99.90;;;;;;5468939;26;20244;-75
2024/04/12 04:54:21;;;;;;;3.10;2.38;;;4.90;99.90;;;;;;5449137;26;20253;-75
2024/04/12 04:56:51;;;;;;;2.85;2.10;;;4.90;99.90;;;;;;5445029;26;20245;-75
2024/04/12 04:59:28;;;;;;;3.15;2.42;;;4.90;99.90;;;;;;5440901;26;20240;-75
2024/04/12 05:01:57;;;;;;;3.17;2.20;;;4.90;99.90;;;;;;5442276;26;20275;-75
2024/04/12 05:04:25;;;;;;;2.35;2.15;;;5.00;99.90;;;;;;5441627;26;20241;-75
2024/04/12 05:06:55;;;;;;;2.70;1.77;;;5.00;99.90;;;;;;5441610;26;20339;-75
2024/04/12 05:09:21;;;;;;;2.35;2.10;;;5.10;99.90;;;;;;5440845;26;20856;-75
2024/04/12 05:11:50;;;;;;;2.90;2.10;;;5.20;99.90;;;;;;5442085;26;20241;-75
2024/04/12 05:17:04;;;;;;;3.53;2.38;;;5.50;99.90;;;;;;5441414;26;20246;-75
2024/04/12 05:19:31;;;;;;;5.45;2.15;;;5.60;99.90;;;;;;5440282;26;20230;-75
2024/04/12 05:22:03;;;;;;;2.40;2.05;;;5.60;99.90;;;;;;5441395;26;20326;-75
2024/04/12 05:24:29;;;;;;;2.78;2.25;;;5.60;99.90;;;;;;5440826;26;20246;-75
2024/04/12 05:27:01;;;;;;;4.17;2.40;;;5.60;99.90;;;;;;5441008;26;20575;-74
2024/04/12 05:29:30;;;;;;;3.13;2.13;;;5.70;99.90;;;;;;5439903;26;21019;-75
2024/04/12 05:31:59;;;;;;;2.28;2.08;;;5.70;99.90;;;;;;5441662;26;20273;-75
2024/04/12 05:34:26;;;;;;;2.95;2.58;;;5.70;99.90;;;;;;5440941;26;20238;-75
2024/04/12 05:36:55;;;;;;;2.47;1.92;;;5.70;99.90;;;;;;5441128;26;20230;-75
2024/04/12 05:39:22;;;;;;;4.40;2.42;;;5.70;99.90;;;;;;5440163;26;20246;-75
2024/04/12 05:41:53;;;;;;;4.15;2.80;;;5.70;99.90;;;;;;5441037;26;20313;-75
2024/04/12 05:44:19;;;;;;;3.38;2.55;;;5.80;99.90;;;;;;5441239;26;20363;-74
2024/04/12 05:46:50;;;;;;;3.75;2.55;;;5.90;99.90;;;;;;5440775;26;20242;-74
2024/04/12 05:49:17;;;;;;;4.18;2.53;;;6.00;99.90;;;;;;5440183;26;20231;-77
2024/04/12 05:51:45;;;;;;;2.80;2.38;;;6.10;99.90;;;;;;5440873;26;20242;-75
2024/04/12 05:54:15;;;;;;;2.08;1.75;;;6.20;99.90;;;;;;5440990;26;20340;-75
2024/04/12 05:56:46;;;;;;;5.88;2.60;;;6.40;99.90;;;;;;5440515;26;20234;-75
2024/04/12 05:59:13;;;;;;;3.97;3.03;;;6.50;99.90;;;;;;5440071;26;20234;-75
2024/04/12 06:01:45;;;;;;;3.33;2.80;;;6.70;99.90;;;;;;5440673;26;20333;-75
2024/04/12 06:04:19;;;;;;;2.92;2.50;;;6.80;99.90;;;;;;5440964;26;20235;-76
2024/04/12 06:06:48;;;;;;;2.80;2.35;;;7.00;99.90;;;;;;5440620;26;20297;-75
2024/04/12 06:09:19;;;;;;;2.47;2.13;;;7.10;99.90;;;;;;5439612;26;20294;-75
2024/04/12 06:11:52;;;;;;;4.80;2.40;;;7.30;99.90;;;;;;5440517;26;20632;-75
2024/04/12 06:14:20;;;;;;;3.80;2.70;;;7.50;99.90;;;;;;5440906;26;20230;-76
2024/04/12 06:16:51;;;;;;;2.33;2.13;;;7.70;99.90;;;;;;5440481;26;20234;-76
2024/04/12 06:19:20;;;;;;;2.95;2.50;;;7.80;99.90;;;;;;5439844;26;20237;-75
2024/04/12 06:21:48;;;;;;;2.47;2.13;;;7.90;99.90;;;;;;5440461;26;20303;-75
2024/04/12 06:24:16;;;;;;;3.35;2.80;;;8.00;99.90;;;;;;5440832;26;20567;-76
2024/04/12 06:26:47;;;;;;;2.85;2.15;;;8.10;99.90;;;;;;5440377;26;20279;-76
2024/04/12 06:29:16;;;;;;;4.75;2.90;;;8.20;99.90;;;;;;5439587;26;20250;-75
2024/04/12 06:31:50;;;;;;;2.33;2.10;;;8.30;99.90;;;;;;5440511;26;20250;-76
2024/04/12 06:34:17;;;;;;;3.17;2.88;;;8.40;99.90;;;;;;5440407;26;20615;-76
2024/04/12 06:36:56;;;;;;;5.00;2.90;;;8.50;99.90;;;;;;5440064;26;20242;-76
2024/04/12 06:39:26;;;;;;;5.15;2.90;;;8.70;99.90;;;;;;5439604;26;20333;-76
2024/04/12 06:41:54;;;;;;;2.60;2.38;;;8.90;99.90;;;;;;5439967;26;20674;-76
2024/04/12 06:44:20;;;;;;;3.65;2.25;;;9.10;99.90;;;;;;5440447;26;20293;-76
2024/04/12 06:46:51;;;;;;;8.13;2.63;;;9.20;99.90;;;;;;5439842;26;20321;-76
2024/04/12 06:49:19;;;;;;;7.90;2.30;;;9.40;99.90;;;;;;5439503;26;20953;-76
2024/04/12 06:54:35;;;;;;;2.42;2.20;;;9.80;99.90;;;;;;5439861;26;20747;-75
2024/04/12 06:57:04;;;;;;;5.00;2.60;;;10.00;99.90;;;;;;5462367;26;20238;-76
2024/04/12 06:59:35;;;;;;;5.55;2.08;;;10.30;99.90;;;;;;5439265;26;20269;-76
2024/04/12 07:02:07;;;;;;;1.90;1.70;;;10.40;99.90;;;;;;5469728;26;20275;-76
2024/04/12 07:04:33;;;;;;;4.97;1.92;;;10.60;99.90;;;;;;5447433;26;20755;-76
2024/04/12 07:07:06;;;;;;;4.30;2.33;;;10.90;99.90;;;;;;5439826;26;20250;-77
2024/04/12 07:09:32;;;;;;;3.13;2.20;;;11.10;99.90;;;;;;5439074;26;20265;-77
2024/04/12 07:12:05;;;;;;;3.30;2.35;;;11.30;99.90;;;;;;5437701;26;20996;-76
2024/04/12 07:14:34;;;;;;;3.00;2.30;;;11.50;99.90;;;;;;5438497;26;20273;-76
2024/04/12 07:17:02;;;;;;;4.20;2.67;;;11.70;99.90;;;;;;5467895;26;20553;-77
2024/04/12 07:19:32;;;;;;;2.33;1.93;;;11.90;99.90;;;;;;5437556;26;20502;-76
2024/04/12 07:22:00;;;;;;;4.23;2.73;;;12.20;99.90;;;;;;5444212;26;20478;-76
2024/04/12 07:24:32;;;;;;;4.70;2.77;;;12.40;99.90;;;;;;5475124;26;21014;-76
2024/04/12 07:27:01;;;;;;;6.73;2.77;;;12.60;99.90;;;;;;5469543;26;20529;-76
2024/04/12 07:29:27;;;;;;;2.87;2.40;;;12.80;99.90;;;;;;5438399;26;20479;-76
2024/04/12 07:31:56;;;;;;;6.53;2.77;;;13.00;99.90;;;;;;5439058;26;20852;-76
2024/04/12 07:34:22;;;;;;;2.77;2.40;;;13.10;99.90;;;;;;5439502;26;20526;-76
2024/04/12 07:36:52;;;;;;;3.00;2.70;;;13.20;99.90;;;;;;5439001;26;20476;-76
2024/04/12 07:39:18;;;;;;;3.00;2.23;;;13.40;99.90;;;;;;5438264;26;20533;-77
2024/04/12 07:41:49;;;;;;;4.70;2.57;;;13.50;99.90;;;;;;5438953;26;20635;-76
2024/04/12 07:44:15;;;;;;;3.40;2.27;;;13.70;99.90;;;;;;5439441;26;20525;-76
2024/04/12 07:46:49;;;;;;;3.43;2.17;;;13.90;99.90;;;;;;5438929;26;20890;-77
2024/04/12 07:49:14;;;;;;;3.43;2.30;;;14.10;99.90;;;;;;5441247;26;20510;-76
2024/04/12 07:51:45;;;;;;;7.83;2.90;;;14.30;99.90;;;;;;5457580;26;20462;-76
2024/04/12 07:54:11;;;;;;;4.00;2.53;;;14.50;99.90;;;;;;5474776;26;20233;-76
2024/04/12 07:56:45;;;;;;;4.40;2.97;;;14.80;99.90;;;;;;5460204;26;20472;-76
2024/04/12 07:59:15;;;;;;;3.67;2.80;;;15.00;99.90;;;;;;5468492;26;20458;-76
2024/04/12 08:01:45;;;;;;;2.80;2.57;;;15.40;99.90;;;;;;5474428;26;20474;-77
2024/04/12 08:04:22;;;;;;;2.37;2.17;;;15.80;99.90;;;;;;5451105;26;20565;-77
2024/04/12 08:06:59;;;;;;;3.07;2.40;;;16.30;99.90;;;;;;5437718;26;20518;-77
2024/04/12 08:09:34;;;;;;;4.23;2.87;;;16.80;99.90;;;;;;5436891;26;20511;-77
2024/04/12 08:12:13;;;;;;;3.50;2.50;;;17.00;99.30;;;;;;5437539;26;20573;-76
2024/04/12 08:14:51;;;;;;;2.90;2.60;;;17.30;98.90;;;;;;5437712;26;20538;-77
2024/04/12 08:17:23;;;;;;;5.47;3.23;;;17.50;99.90;;;;;;5446662;26;20539;-77
2024/04/12 08:19:49;;;;;;;3.40;2.80;;;17.70;99.80;;;;;;5436399;26;20538;-76
2024/04/12 08:22:20;;;;;;;3.30;2.97;;;18.10;99.80;;;;;;5437895;26;20476;-76
2024/04/12 08:24:51;;;;;;;6.03;2.80;;;18.50;97.90;;;;;;5437696;26;20464;-76
2024/04/12 08:27:24;;;;;;;5.00;2.53;;;18.90;97.60;;;;;;5437183;26;20523;-76
2024/04/12 08:29:52;;;;;;;3.87;2.70;;;19.10;97.30;;;;;;5436512;26;20520;-76
2024/04/12 08:32:27;;;;;;;3.87;2.70;;;19.40;97.30;;;;;;5459622;26;20469;-76
2024/04/12 08:34:55;;;;;;;4.83;2.90;;;19.70;97.20;;;;;;5444354;26;20571;-76
2024/04/12 08:37:30;;;;;;;7.80;2.90;;;20.00;96.40;;;;;;5441492;26;20479;-76
2024/04/12 08:39:57;;;;;;;7.23;3.50;;;20.40;96.00;;;;;;5439514;26;20509;-77
2024/04/12 08:42:28;;;;;;;6.20;2.93;;;20.70;96.40;;;;;;5441200;26;20580;-76
2024/04/12 08:44:58;;;;;;;4.57;3.20;;;21.20;95.50;;;;;;5440922;26;20547;-76
2024/04/12 08:47:36;;;;;;;4.67;3.00;;;21.50;95.20;;;;;;5441661;26;20475;-76
2024/04/12 08:50:04;;;;;;;3.27;2.93;;;21.90;95.10;;;;;;5439467;26;20479;-76
2024/04/12 08:52:43;;;;;;;3.43;3.07;;;22.30;93.30;;;;;;5441399;26;21076;-76
2024/04/12 08:55:13;;;;;;;3.33;2.80;;;22.40;93.60;;;;;;5440866;26;20528;-76
2024/04/12 08:57:41;;;;;;;3.60;2.80;;;22.30;94.10;;;;;;5441698;26;20455;-77
2024/04/12 09:00:18;;;;;;;3.93;3.20;;;22.40;93.40;;;;;;5439634;26;20479;-76
2024/04/12 09:02:51;;;;;;;4.77;3.30;;;22.40;91.40;;;;;;5441611;26;20506;-76
2024/04/12 09:05:22;;;;;;;3.17;2.90;;;22.40;92.40;;;;;;5473809;26;20580;-77
2024/04/12 09:07:51;;;;;;;5.83;3.20;;;22.80;92.70;;;;;;5477480;26;20566;-77
2024/04/12 09:10:17;;;;;;;2.70;2.27;;;23.30;92.30;;;;;;5453451;26;20485;-77
2024/04/12 09:12:46;;;;;;;2.67;2.47;;;23.50;91.50;;;;;;5441264;26;20581;-76
2024/04/12 09:15:24;;;;;;;4.00;2.97;;;23.90;91.70;;;;;;5467045;26;20475;-76
2024/04/12 09:18:00;;;;;;;3.70;2.93;;;24.30;90.40;;;;;;5440605;26;20587;-77
2024/04/12 09:20:30;;;;;;;3.00;2.80;;;24.40;91.10;;;;;;5439726;26;20567;-77
2024/04/12 09:23:13;;;;;;;3.30;2.47;;;24.70;90.30;;;;;;5440814;26;20814;-77
2024/04/12 09:25:44;;;;;;;2.80;2.50;;;25.10;88.80;;;;;;5440958;26;20516;-77
2024/04/12 09:28:14;;;;;;;4.40;2.50;;;24.60;82.90;;;;;;5439876;26;21114;-77
2024/04/12 09:33:31;;;;;;;3.47;2.47;;;24.40;85.80;;;;;;5443781;26;21165;-77
2024/04/12 09:36:13;;;;;;;4.40;2.47;;;25.20;87.60;;;;;;5440198;26;20464;-77
2024/04/12 09:38:39;;;;;;;2.57;2.37;;;26.00;86.90;;;;;;5440129;26;20483;-77
2024/04/12 09:41:28;;;;;;;3.57;2.70;;;26.10;86.30;;;;;;5439869;26;20464;-77
2024/04/12 09:43:59;;;;;;;3.47;2.30;;;26.30;87.90;;;;;;5453148;26;20466;-77
2024/04/12 09:46:46;;;;;;;2.53;2.17;;;26.90;87.40;;;;;;5440948;26;20860;-77
2024/04/12 10:39:33;;;;;;;3.10;2.80;;;30.30;74.50;;;;;;5441496;26;20512;-76
2024/04/12 10:42:05;;;;;;;6.33;3.70;;;30.40;73.60;;;;;;5439348;26;21080;-77
2024/04/12 10:44:34;;;;;;;3.80;3.40;;;30.50;74.10;;;;;;5440434;26;20467;-76
2024/04/12 10:46:59;;;;;;;3.53;2.70;;;30.50;73.60;;;;;;5440708;26;20475;-77
2024/04/12 10:49:30;;;;;;;3.20;2.90;;;29.80;72.40;;;;;;5475891;26;20512;-76
2024/04/12 10:51:58;;;;;;;3.00;2.70;;;30.10;76.40;;;;;;5461460;26;20340;-76
2024/04/12 10:54:29;;;;;;;3.57;3.10;;;30.20;73.70;;;;;;5451609;26;20581;-78
2024/04/12 10:56:56;;;;;;;3.53;3.23;;;30.30;74.50;;;;;;5439070;26;20624;-76
2024/04/12 10:59:30;;;;;;;3.10;2.80;;;30.30;71.70;;;;;;5452183;26;20531;-77
2024/04/12 11:01:57;;;;;;;3.50;2.80;;;29.90;72.80;;;;;;5439917;26;20518;-77
2024/04/12 11:04:28;;;;;;;3.23;2.93;;;29.90;75.30;;;;;;5452710;26;21125;-77
2024/04/12 11:06:54;;;;;;;3.63;3.27;;;30.00;73.50;;;;;;5439655;26;20860;-77
2024/04/12 11:09:37;;;;;;;4.43;3.20;;;30.00;70.50;;;;;;5453900;26;20563;-77
2024/04/12 11:12:10;;;;;;;3.00;2.70;;;29.30;72.20;;;;;;5438862;26;20583;-77
2024/04/12 11:14:50;;;;;;;3.47;2.40;;;28.60;73.20;;;;;;5440084;26;20448;-77
2024/04/12 11:31:24;;;;;;;3.93;3.53;;;28.90;74.20;;;;;;5443259;26;21416;-77
2024/04/12 11:33:52;;;;;;;2.87;2.10;;;29.30;72.50;;;;;;5440292;26;20479;-77
2024/04/12 11:36:23;;;;;;;2.67;2.47;;;29.40;74.20;;;;;;5456065;26;20530;-77
2024/04/12 11:38:53;;;;;;;4.13;2.37;;;29.80;74.00;;;;;;5464316;26;20525;-78
2024/04/12 11:41:24;;;;;;;2.43;2.23;;;29.60;72.70;;;;;;5456266;26;20523;-78
2024/04/12 11:43:52;;;;;;;2.50;2.30;;;29.40;75.00;;;;;;5453018;26;20458;-78
2024/04/12 11:46:23;;;;;;;3.97;2.33;;;29.80;73.60;;;;;;5440501;26;20515;-77
2024/04/12 11:48:53;;;;;;;2.57;2.00;;;30.00;72.90;;;;;;5437198;26;20905;-77
2024/04/12 11:51:22;;;;;;;2.83;2.60;;;30.40;74.10;;;;;;5472610;26;21014;-76
2024/04/12 11:53:48;;;;;;;3.80;2.93;;;30.70;70.60;;;;;;5459416;26;20462;-76
2024/04/12 11:56:17;;;;;;;3.20;2.90;;;30.20;69.80;;;;;;5455625;26;21075;-76
2024/04/12 11:58:46;;;;;;;4.30;2.80;;;29.80;71.40;;;;;;5438244;26;20531;-77
2024/04/12 12:01:15;;;;;;;3.27;2.73;;;29.60;73.70;;;;;;5438322;26;20818;-77
2024/04/12 12:03:41;;;;;;;6.17;3.23;;;29.90;70.70;;;;;;5462639;26;20462;-77
2024/04/12 12:06:09;;;;;;;5.37;4.00;;;30.00;71.00;;;;;;5473611;26;20864;-77
2024/04/12 12:08:41;;;;;;;3.43;2.73;;;30.20;72.30;;;;;;5449878;26;20478;-77
2024/04/12 12:11:10;;;;;;;3.90;3.07;;;30.60;70.90;;;;;;5449515;26;20884;-77
2024/04/12 12:13:36;;;;;;;3.47;2.97;;;30.70;68.10;;;;;;5478790;26;20547;-78
2024/04/12 12:16:07;;;;;;;2.27;2.07;;;30.70;69.80;;;;;;5463246;26;20955;-78
2024/04/12 12:18:36;;;;;;;4.23;3.07;;;30.80;72.00;;;;;;5455848;26;20277;-77
2024/04/12 12:21:04;;;;;;;3.00;2.60;;;31.20;70.70;;;;;;5457857;26;20515;-77
2024/04/12 12:23:30;;;;;;;4.20;3.07;;;30.90;69.90;;;;;;5457251;26;20479;-76
2024/04/12 12:25:59;;;;;;;2.80;2.60;;;31.30;71.00;;;;;;5456732;26;20467;-77
2024/04/12 12:28:26;;;;;;;2.73;2.53;;;31.60;70.60;;;;;;5446055;26;20271;-77
2024/04/12 12:30:57;;;;;;;2.80;2.50;;;31.60;70.00;;;;;;5451387;26;20587;-78
2024/04/12 12:33:31;;;;;;;3.97;2.20;;;31.70;68.50;;;;;;5461466;26;20532;-76
2024/04/12 12:36:05;;;;;;;3.50;2.57;;;32.00;67.60;;;;;;5461396;26;20821;-78
2024/04/12 12:38:31;;;;;;;3.83;2.80;;;31.90;68.20;;;;;;5456363;26;20491;-77
2024/04/12 12:41:00;;;;;;;2.20;2.00;;;31.90;67.60;;;;;;5453879;26;20462;-77
2024/04/12 12:43:32;;;;;;;5.80;2.97;;;31.90;69.40;;;;;;5458951;26;20518;-77
2024/04/12 12:46:00;;;;;;;3.30;2.50;;;31.90;67.80;;;;;;5460643;26;20471;-77
2024/04/12 12:48:28;;;;;;;4.57;2.30;;;31.70;68.70;;;;;;5460241;26;20468;-78
2024/04/12 12:50:57;;;;;;;3.17;2.57;;;31.90;68.80;;;;;;5460027;26;20754;-77
2024/04/12 12:53:26;;;;;;;3.77;2.50;;;31.60;67.60;;;;;;5469919;26;20475;-77
2024/04/12 12:55:55;;;;;;;3.13;2.57;;;31.10;65.70;;;;;;5471235;26;20874;-78
2024/04/12 12:58:25;;;;;;;4.33;1.87;;;31.00;69.30;;;;;;5455989;26;20471;-77
2024/04/12 13:00:59;;;;;;;2.60;2.40;;;31.20;69.90;;;;;;5486244;26;20462;-77
2024/04/12 13:03:29;;;;;;;3.77;2.47;;;31.40;67.10;;;;;;5475634;26;20575;-77
2024/04/12 13:05:58;;;;;;;3.77;3.27;;;31.50;70.50;;;;;;5470326;26;20466;-77
2024/04/12 13:08:25;;;;;;;3.73;2.60;;;31.20;70.50;;;;;;5457885;26;21211;-77
2024/04/12 13:10:56;;;;;;;3.70;2.90;;;31.10;70.50;;;;;;5481606;26;20523;-77
2024/04/12 13:13:23;;;;;;;2.83;2.63;;;30.90;71.00;;;;;;5472955;26;20530;-77
2024/04/12 13:15:55;;;;;;;4.50;3.27;;;30.80;70.90;;;;;;5466078;26;21035;-77
2024/04/12 13:18:22;;;;;;;4.47;3.20;;;30.90;70.00;;;;;;5475349;26;20474;-78
2024/04/12 13:20:55;;;;;;;4.57;3.10;;;30.80;71.40;;;;;;5483482;26;20480;-78
2024/04/12 13:23:24;;;;;;;4.20;3.30;;;31.00;70.60;;;;;;5506898;26;20513;-78
2024/04/12 13:25:54;;;;;;;4.03;3.20;;;31.20;70.00;;;;;;5503581;26;20850;-77
2024/04/12 13:28:19;;;;;;;5.83;4.07;;;31.10;70.40;;;;;;5489254;26;20620;-79
2024/04/12 13:30:48;;;;;;;4.97;3.80;;;30.80;72.90;;;;;;5487024;26;20482;-79
2024/04/12 13:33:14;;;;;;;4.70;3.60;;;30.70;71.50;;;;;;5470994;26;20282;-78
2024/04/12 13:35:43;;;;;;;6.70;4.70;;;30.70;72.80;;;;;;5484766;26;20521;-79
2024/04/12 13:38:12;;;;;;;4.80;3.80;;;30.70;70.50;;;;;;5500725;26;20589;-78
2024/04/12 13:40:45;;;;;;;5.10;4.40;;;30.70;71.80;;;;;;5479256;26;20860;-78
2024/04/12 13:43:13;;;;;;;7.53;4.80;;;30.50;72.80;;;;;;5508593;26;20602;-79
2024/04/12 13:51:10;;;;;;;5.33;3.60;;;29.60;73.10;;;;;;5434046;26;20896;-77
2024/04/12 13:53:43;;;;;;;7.33;4.33;;;29.70;73.10;;;;;;5491025;26;20825;-78
2024/04/12 13:56:25;;;;;;;4.60;3.90;;;29.50;72.40;;;;;;5474866;26;20460;-77
2024/04/12 13:58:56;;;;;;;5.40;3.80;;;29.40;73.70;;;;;;5464435;26;20470;-77
2024/04/12 14:01:22;;;;;;;2.93;2.47;;;29.40;75.10;;;;;;5488860;26;20470;-75
2024/04/12 14:03:53;;;;;;;4.35;3.50;;;29.30;73.20;;;;;;5499921;26;20372;-76
2024/04/12 14:06:23;;;;;;;4.17;3.20;;;28.80;73.30;;;;;;5482826;26;20721;-76
2024/04/12 14:08:54;;;;;;;4.50;2.70;;;28.70;74.80;;;;;;5484574;25;20903;-76
2024/04/12 14:11:20;;;;;;;6.43;4.60;;;28.70;75.30;;;;;;5483665;26;20518;-76
2024/04/12 14:13:49;;;;;;;2.73;2.50;;;28.80;74.70;;;;;;5478508;26;20543;-77
2024/04/12 14:16:28;;;;;;;4.30;3.00;;;28.50;73.10;;;;;;5491212;26;20474;-76
2024/04/12 14:19:00;;;;;;;3.73;2.50;;;28.40;75.80;;;;;;5469156;26;20478;-76
2024/04/12 14:21:26;;;;;;;2.53;2.10;;;28.60;76.70;;;;;;5488833;26;20459;-76
2024/04/12 14:24:00;;;;;;;2.37;2.17;;;28.70;74.60;;;;;;5480165;26;20548;-76
2024/04/12 14:26:26;;;;;;;3.60;2.30;;;28.50;74.70;;;;;;5490310;26;20458;-76